sensor_id;sensor_type;location;lat;lon;timestamp;temperature;humidity
18083;DHT22;9168;51.194;6.840;2024-02-26T00:01:13;7.80;99.90
18083;DHT22;9168;51.194;6.840;2024-02-26T00:03:41;7.80;99.90
18083;DHT22;9168;51.194;6.840;2024-02-26T00:06:10;7.80;99.90
18083;DHT22;9168;51.194;6.840;2024-02-26T00:08:37;7.90;99.90
18083;DHT22;9168;51.194;6.840;2024-02-26T00:11:04;7.90;99.90
18083;DHT22;9168;51.194;6.840;2024-02-26T00:13:30;7.90;99.90
18083;DHT22;9168;51.194;6.840;2024-02-26T00:15:57;7.90;99.90
18083;DHT22;9168;51.194;6.840;2024-02-26T00:18:24;7.90;99.90
18083;DHT22;9168;51.194;6.840;2024-02-26T00:20:52;7.90;99.90
18083;DHT22;9168;51.194;6.840;2024-02-26T00:23:19;7.90;99.90
18083;DHT22;9168;51.194;6.840;2024-02-26T00:25:46;7.90;99.90
18083;DHT22;9168;51.194;6.840;2024-02-26T00:28:13;7.90;99.90
18083;DHT22;9168;51.194;6.840;2024-02-26T00:30:40;7.90;99.90
18083;DHT22;9168;51.194;6.840;2024-02-26T00:33:07;7.80;99.90
18083;DHT22;9168;51.194;6.840;2024-02-26T00:35:34;7.80;99.90
18083;DHT22;9168;51.194;6.840;2024-02-26T00:38:02;7.80;99.90
18083;DHT22;9168;51.194;6.840;2024-02-26T00:40:29;7.80;99.90
18083;DHT22;9168;51.194;6.840;2024-02-26T00:42:56;7.80;99.90
18083;DHT22;9168;51.194;6.840;2024-02-26T00:45:23;7.80;99.90
18083;DHT22;9168;51.194;6.840;2024-02-26T00:47:50;7.70;99.90
18083;DHT22;9168;51.194;6.840;2024-02-26T00:50:17;7.70;99.90
18083;DHT22;9168;51.194;6.840;2024-02-26T00:52:46;7.70;99.90
18083;DHT22;9168;51.194;6.840;2024-02-26T00:55:14;7.70;99.90
18083;DHT22;9168;51.194;6.840;2024-02-26T00:57:42;7.70;99.90
18083;DHT22;9168;51.194;6.840;2024-02-26T01:00:09;7.60;99.90
18083;DHT22;9168;51.194;6.840;2024-02-26T01:02:36;7.60;99.90
18083;DHT22;9168;51.194;6.840;2024-02-26T01:05:04;7.60;99.90
18083;DHT22;9168;51.194;6.840;2024-02-26T01:07:32;7.60;99.90
18083;DHT22;9168;51.194;6.840;2024-02-26T01:10:01;7.50;99.90
18083;DHT22;9168;51.194;6.840;2024-02-26T01:12:29;7.50;99.90
18083;DHT22;9168;51.194;6.840;2024-02-26T01:14:56;7.50;99.90
18083;DHT22;9168;51.194;6.840;2024-02-26T01:17:23;7.50;99.90
18083;DHT22;9168;51.194;6.840;2024-02-26T01:19:50;7.50;99.90
18083;DHT22;9168;51.194;6.840;2024-02-26T01:22:19;7.50;99.90
18083;DHT22;9168;51.194;6.840;2024-02-26T01:24:46;7.50;99.90
18083;DHT22;9168;51.194;6.840;2024-02-26T01:27:13;7.50;99.90
18083;DHT22;9168;51.194;6.840;2024-02-26T01:29:42;7.50;99.90
18083;DHT22;9168;51.194;6.840;2024-02-26T01:32:09;7.50;99.90
18083;DHT22;9168;51.194;6.840;2024-02-26T01:34:36;7.50;99.90
18083;DHT22;9168;51.194;6.840;2024-02-26T01:37:03;7.60;99.90
18083;DHT22;9168;51.194;6.840;2024-02-26T01:39:30;7.60;99.90
18083;DHT22;9168;51.194;6.840;2024-02-26T01:41:57;7.60;99.90
18083;DHT22;9168;51.194;6.840;2024-02-26T01:44:24;7.60;99.90
18083;DHT22;9168;51.194;6.840;2024-02-26T01:46:54;7.60;99.90
18083;DHT22;9168;51.194;6.840;2024-02-26T01:49:21;7.60;99.90
18083;DHT22;9168;51.194;6.840;2024-02-26T01:51:48;7.60;99.90
18083;DHT22;9168;51.194;6.840;2024-02-26T01:54:15;7.50;99.90
18083;DHT22;9168;51.194;6.840;2024-02-26T01:56:42;7.50;99.90
18083;DHT22;9168;51.194;6.840;2024-02-26T01:59:10;7.50;99.90
18083;DHT22;9168;51.194;6.840;2024-02-26T02:01:37;7.40;99.90
18083;DHT22;9168;51.194;6.840;2024-02-26T02:04:07;7.40;99.90
18083;DHT22;9168;51.194;6.840;2024-02-26T02:06:36;7.40;99.90
18083;DHT22;9168;51.194;6.840;2024-02-26T02:09:04;7.40;99.90
18083;DHT22;9168;51.194;6.840;2024-02-26T02:11:34;7.30;99.90
18083;DHT22;9168;51.194;6.840;2024-02-26T02:14:01;7.30;99.90
18083;DHT22;9168;51.194;6.840;2024-02-26T02:16:28;7.30;99.90
18083;DHT22;9168;51.194;6.840;2024-02-26T02:18:55;7.30;99.90
18083;DHT22;9168;51.194;6.840;2024-02-26T02:21:23;7.40;99.90
18083;DHT22;9168;51.194;6.840;2024-02-26T02:23:50;7.40;99.90
18083;DHT22;9168;51.194;6.840;2024-02-26T02:26:17;7.40;99.90
18083;DHT22;9168;51.194;6.840;2024-02-26T02:28:45;7.40;99.90
18083;DHT22;9168;51.194;6.840;2024-02-26T02:31:13;7.40;99.90
18083;DHT22;9168;51.194;6.840;2024-02-26T02:33:40;7.40;99.90
18083;DHT22;9168;51.194;6.840;2024-02-26T02:36:07;7.40;99.90
18083;DHT22;9168;51.194;6.840;2024-02-26T02:38:36;7.40;99.90
18083;DHT22;9168;51.194;6.840;2024-02-26T02:41:04;7.40;99.90
18083;DHT22;9168;51.194;6.840;2024-02-26T02:43:31;7.40;99.90
18083;DHT22;9168;51.194;6.840;2024-02-26T02:45:57;7.40;99.90
18083;DHT22;9168;51.194;6.840;2024-02-26T02:48:24;7.40;99.90
18083;DHT22;9168;51.194;6.840;2024-02-26T02:50:51;7.30;99.90
18083;DHT22;9168;51.194;6.840;2024-02-26T02:53:18;7.30;99.90
18083;DHT22;9168;51.194;6.840;2024-02-26T02:55:46;7.30;99.90
18083;DHT22;9168;51.194;6.840;2024-02-26T02:58:13;7.30;99.90
18083;DHT22;9168;51.194;6.840;2024-02-26T03:00:40;7.30;99.90
18083;DHT22;9168;51.194;6.840;2024-02-26T03:03:07;7.30;99.90
18083;DHT22;9168;51.194;6.840;2024-02-26T03:05:34;7.30;99.90
18083;DHT22;9168;51.194;6.840;2024-02-26T03:08:00;7.30;99.90
18083;DHT22;9168;51.194;6.840;2024-02-26T03:10:27;7.30;99.90
18083;DHT22;9168;51.194;6.840;2024-02-26T03:12:56;7.30;99.90
18083;DHT22;9168;51.194;6.840;2024-02-26T03:15:22;7.30;99.90
18083;DHT22;9168;51.194;6.840;2024-02-26T03:17:49;7.30;99.90
18083;DHT22;9168;51.194;6.840;2024-02-26T03:20:16;7.30;99.90
18083;DHT22;9168;51.194;6.840;2024-02-26T03:22:45;7.30;99.90
18083;DHT22;9168;51.194;6.840;2024-02-26T03:25:12;7.30;99.90
18083;DHT22;9168;51.194;6.840;2024-02-26T03:27:39;7.30;99.90
18083;DHT22;9168;51.194;6.840;2024-02-26T03:30:08;7.30;99.90
18083;DHT22;9168;51.194;6.840;2024-02-26T03:32:35;7.30;99.90
18083;DHT22;9168;51.194;6.840;2024-02-26T03:35:02;7.40;99.90
18083;DHT22;9168;51.194;6.840;2024-02-26T03:37:29;7.30;99.90
18083;DHT22;9168;51.194;6.840;2024-02-26T03:39:59;7.30;99.90
18083;DHT22;9168;51.194;6.840;2024-02-26T03:42:26;7.30;99.90
18083;DHT22;9168;51.194;6.840;2024-02-26T03:44:53;7.30;99.90
18083;DHT22;9168;51.194;6.840;2024-02-26T03:47:21;7.30;99.90
18083;DHT22;9168;51.194;6.840;2024-02-26T03:49:49;7.20;99.90
18083;DHT22;9168;51.194;6.840;2024-02-26T03:52:15;7.30;99.90
18083;DHT22;9168;51.194;6.840;2024-02-26T03:54:42;7.30;99.90
18083;DHT22;9168;51.194;6.840;2024-02-26T03:57:09;7.30;99.90
18083;DHT22;9168;51.194;6.840;2024-02-26T03:59:36;7.30;99.90
18083;DHT22;9168;51.194;6.840;2024-02-26T04:02:03;7.30;99.90
18083;DHT22;9168;51.194;6.840;2024-02-26T04:04:34;7.30;99.90
18083;DHT22;9168;51.194;6.840;2024-02-26T04:07:01;7.30;99.90
18083;DHT22;9168;51.194;6.840;2024-02-26T04:09:27;7.20;99.90
18083;DHT22;9168;51.194;6.840;2024-02-26T04:11:54;7.30;99.90
18083;DHT22;9168;51.194;6.840;2024-02-26T04:14:21;7.20;99.90
18083;DHT22;9168;51.194;6.840;2024-02-26T04:16:48;7.20;99.90
18083;DHT22;9168;51.194;6.840;2024-02-26T04:19:17;7.20;99.90
18083;DHT22;9168;51.194;6.840;2024-02-26T04:21:45;7.30;99.90
18083;DHT22;9168;51.194;6.840;2024-02-26T04:24:12;7.30;99.90
18083;DHT22;9168;51.194;6.840;2024-02-26T04:26:39;7.20;99.90
18083;DHT22;9168;51.194;6.840;2024-02-26T04:29:06;7.30;99.90
18083;DHT22;9168;51.194;6.840;2024-02-26T04:31:33;7.20;99.90
18083;DHT22;9168;51.194;6.840;2024-02-26T04:33:59;7.20;99.90
18083;DHT22;9168;51.194;6.840;2024-02-26T04:36:26;7.20;99.90
18083;DHT22;9168;51.194;6.840;2024-02-26T04:38:54;7.20;99.90
18083;DHT22;9168;51.194;6.840;2024-02-26T04:41:22;7.20;99.90
18083;DHT22;9168;51.194;6.840;2024-02-26T04:43:48;7.20;99.90
18083;DHT22;9168;51.194;6.840;2024-02-26T04:46:15;7.20;99.90
18083;DHT22;9168;51.194;6.840;2024-02-26T04:48:42;7.10;99.90
18083;DHT22;9168;51.194;6.840;2024-02-26T04:51:11;7.10;99.90
18083;DHT22;9168;51.194;6.840;2024-02-26T04:53:38;7.20;99.90
18083;DHT22;9168;51.194;6.840;2024-02-26T04:56:06;7.20;99.90
18083;DHT22;9168;51.194;6.840;2024-02-26T04:58:33;7.20;99.90
18083;DHT22;9168;51.194;6.840;2024-02-26T05:01:00;7.20;99.90
18083;DHT22;9168;51.194;6.840;2024-02-26T05:03:29;7.20;99.90
18083;DHT22;9168;51.194;6.840;2024-02-26T05:05:55;7.10;99.90
18083;DHT22;9168;51.194;6.840;2024-02-26T05:08:23;7.10;99.90
18083;DHT22;9168;51.194;6.840;2024-02-26T05:10:50;7.00;99.90
18083;DHT22;9168;51.194;6.840;2024-02-26T05:13:18;7.00;99.90
18083;DHT22;9168;51.194;6.840;2024-02-26T05:15:45;7.00;99.90
18083;DHT22;9168;51.194;6.840;2024-02-26T05:18:14;7.00;99.90
18083;DHT22;9168;51.194;6.840;2024-02-26T05:20:41;7.00;99.90
18083;DHT22;9168;51.194;6.840;2024-02-26T05:23:09;7.00;99.90
18083;DHT22;9168;51.194;6.840;2024-02-26T05:25:36;7.00;99.90
18083;DHT22;9168;51.194;6.840;2024-02-26T05:28:03;7.00;99.90
18083;DHT22;9168;51.194;6.840;2024-02-26T05:30:31;7.00;99.90
18083;DHT22;9168;51.194;6.840;2024-02-26T05:32:58;6.90;99.90
18083;DHT22;9168;51.194;6.840;2024-02-26T05:35:25;7.00;99.90
18083;DHT22;9168;51.194;6.840;2024-02-26T05:37:52;7.00;99.90
18083;DHT22;9168;51.194;6.840;2024-02-26T05:40:19;7.00;99.90
18083;DHT22;9168;51.194;6.840;2024-02-26T05:42:46;6.90;99.90
18083;DHT22;9168;51.194;6.840;2024-02-26T05:45:14;7.00;99.90
18083;DHT22;9168;51.194;6.840;2024-02-26T05:47:43;6.90;99.90
18083;DHT22;9168;51.194;6.840;2024-02-26T05:50:10;6.90;99.90
18083;DHT22;9168;51.194;6.840;2024-02-26T05:52:38;6.90;99.90
18083;DHT22;9168;51.194;6.840;2024-02-26T05:55:05;7.00;99.90
18083;DHT22;9168;51.194;6.840;2024-02-26T05:57:34;7.00;99.90
18083;DHT22;9168;51.194;6.840;2024-02-26T06:00:01;6.90;99.90
18083;DHT22;9168;51.194;6.840;2024-02-26T06:02:29;6.90;99.90
18083;DHT22;9168;51.194;6.840;2024-02-26T06:04:58;6.90;99.90
18083;DHT22;9168;51.194;6.840;2024-02-26T06:07:25;6.90;99.90
18083;DHT22;9168;51.194;6.840;2024-02-26T06:09:52;6.90;99.90
18083;DHT22;9168;51.194;6.840;2024-02-26T06:12:18;6.90;99.90
18083;DHT22;9168;51.194;6.840;2024-02-26T06:14:45;6.90;99.90
18083;DHT22;9168;51.194;6.840;2024-02-26T06:17:12;6.90;99.90
18083;DHT22;9168;51.194;6.840;2024-02-26T06:19:42;6.80;99.90
18083;DHT22;9168;51.194;6.840;2024-02-26T06:22:10;6.90;99.90
18083;DHT22;9168;51.194;6.840;2024-02-26T06:24:37;6.80;99.90
18083;DHT22;9168;51.194;6.840;2024-02-26T06:27:04;6.80;99.90
18083;DHT22;9168;51.194;6.840;2024-02-26T06:29:31;6.80;99.90
18083;DHT22;9168;51.194;6.840;2024-02-26T06:31:59;6.80;99.90
18083;DHT22;9168;51.194;6.840;2024-02-26T06:34:26;6.80;99.90
18083;DHT22;9168;51.194;6.840;2024-02-26T06:36:53;6.90;99.90
18083;DHT22;9168;51.194;6.840;2024-02-26T06:39:21;6.80;99.90
18083;DHT22;9168;51.194;6.840;2024-02-26T06:41:48;6.80;99.90
18083;DHT22;9168;51.194;6.840;2024-02-26T06:44:15;6.80;99.90
18083;DHT22;9168;51.194;6.840;2024-02-26T06:46:42;6.80;99.90
18083;DHT22;9168;51.194;6.840;2024-02-26T06:49:09;6.80;99.90
18083;DHT22;9168;51.194;6.840;2024-02-26T06:51:35;6.80;99.90
18083;DHT22;9168;51.194;6.840;2024-02-26T06:54:02;6.80;99.90
18083;DHT22;9168;51.194;6.840;2024-02-26T06:56:31;6.80;99.90
18083;DHT22;9168;51.194;6.840;2024-02-26T06:58:57;6.80;99.90
18083;DHT22;9168;51.194;6.840;2024-02-26T07:01:24;6.70;99.90
18083;DHT22;9168;51.194;6.840;2024-02-26T07:03:51;6.70;99.90
18083;DHT22;9168;51.194;6.840;2024-02-26T07:06:18;6.80;99.90
18083;DHT22;9168;51.194;6.840;2024-02-26T07:08:45;6.80;99.90
18083;DHT22;9168;51.194;6.840;2024-02-26T07:11:12;6.70;99.90
18083;DHT22;9168;51.194;6.840;2024-02-26T07:13:40;6.70;99.90
18083;DHT22;9168;51.194;6.840;2024-02-26T07:16:09;6.70;99.90
18083;DHT22;9168;51.194;6.840;2024-02-26T07:18:36;6.70;99.90
18083;DHT22;9168;51.194;6.840;2024-02-26T07:21:03;6.70;99.90
18083;DHT22;9168;51.194;6.840;2024-02-26T07:23:30;6.70;99.90
18083;DHT22;9168;51.194;6.840;2024-02-26T07:25:57;6.80;99.90
18083;DHT22;9168;51.194;6.840;2024-02-26T07:28:24;6.80;99.90
18083;DHT22;9168;51.194;6.840;2024-02-26T07:30:52;6.70;99.90
18083;DHT22;9168;51.194;6.840;2024-02-26T07:33:19;6.80;99.90
18083;DHT22;9168;51.194;6.840;2024-02-26T07:35:46;6.70;99.90
18083;DHT22;9168;51.194;6.840;2024-02-26T07:38:13;6.70;99.90
18083;DHT22;9168;51.194;6.840;2024-02-26T07:40:39;6.70;99.90
18083;DHT22;9168;51.194;6.840;2024-02-26T07:43:06;6.70;99.90
18083;DHT22;9168;51.194;6.840;2024-02-26T07:45:33;6.80;99.90
18083;DHT22;9168;51.194;6.840;2024-02-26T07:48:03;6.80;99.90
18083;DHT22;9168;51.194;6.840;2024-02-26T07:50:30;6.80;99.90
18083;DHT22;9168;51.194;6.840;2024-02-26T07:52:57;6.80;99.90
18083;DHT22;9168;51.194;6.840;2024-02-26T07:55:24;6.80;99.90
18083;DHT22;9168;51.194;6.840;2024-02-26T07:57:51;6.80;99.90
18083;DHT22;9168;51.194;6.840;2024-02-26T08:00:18;6.90;99.90
18083;DHT22;9168;51.194;6.840;2024-02-26T08:02:45;6.80;99.90
18083;DHT22;9168;51.194;6.840;2024-02-26T08:05:14;6.90;99.90
18083;DHT22;9168;51.194;6.840;2024-02-26T08:07:41;6.90;99.90
18083;DHT22;9168;51.194;6.840;2024-02-26T08:10:08;6.90;99.90
18083;DHT22;9168;51.194;6.840;2024-02-26T08:12:36;6.90;99.90
18083;DHT22;9168;51.194;6.840;2024-02-26T08:15:04;6.90;99.90
18083;DHT22;9168;51.194;6.840;2024-02-26T08:17:31;6.90;99.90
18083;DHT22;9168;51.194;6.840;2024-02-26T08:19:58;6.90;99.90
18083;DHT22;9168;51.194;6.840;2024-02-26T08:22:27;6.90;99.90
18083;DHT22;9168;51.194;6.840;2024-02-26T08:24:53;6.90;99.90
18083;DHT22;9168;51.194;6.840;2024-02-26T08:27:20;7.00;99.90
18083;DHT22;9168;51.194;6.840;2024-02-26T08:29:47;7.00;99.90
18083;DHT22;9168;51.194;6.840;2024-02-26T08:32:14;7.00;99.90
18083;DHT22;9168;51.194;6.840;2024-02-26T08:34:41;7.00;99.90
18083;DHT22;9168;51.194;6.840;2024-02-26T08:37:08;7.10;99.90
18083;DHT22;9168;51.194;6.840;2024-02-26T08:39:36;7.10;99.90
18083;DHT22;9168;51.194;6.840;2024-02-26T08:42:04;7.10;99.90
18083;DHT22;9168;51.194;6.840;2024-02-26T08:44:31;7.10;99.90
18083;DHT22;9168;51.194;6.840;2024-02-26T08:46:58;7.10;99.90
18083;DHT22;9168;51.194;6.840;2024-02-26T08:49:25;7.10;99.90
18083;DHT22;9168;51.194;6.840;2024-02-26T08:51:52;7.10;99.90
18083;DHT22;9168;51.194;6.840;2024-02-26T08:54:18;7.10;99.90
18083;DHT22;9168;51.194;6.840;2024-02-26T08:56:47;7.20;99.90
18083;DHT22;9168;51.194;6.840;2024-02-26T08:59:14;7.20;99.90
18083;DHT22;9168;51.194;6.840;2024-02-26T09:01:41;7.10;99.90
18083;DHT22;9168;51.194;6.840;2024-02-26T09:04:08;7.10;99.90
18083;DHT22;9168;51.194;6.840;2024-02-26T09:06:35;7.10;99.90
18083;DHT22;9168;51.194;6.840;2024-02-26T09:09:02;7.20;99.90
18083;DHT22;9168;51.194;6.840;2024-02-26T09:11:29;7.10;99.90
18083;DHT22;9168;51.194;6.840;2024-02-26T09:13:57;7.20;99.90
18083;DHT22;9168;51.194;6.840;2024-02-26T09:16:24;7.20;99.90
18083;DHT22;9168;51.194;6.840;2024-02-26T09:18:51;7.20;99.90
18083;DHT22;9168;51.194;6.840;2024-02-26T09:21:18;7.20;99.90
18083;DHT22;9168;51.194;6.840;2024-02-26T09:23:48;7.20;99.90
18083;DHT22;9168;51.194;6.840;2024-02-26T09:26:15;7.30;99.90
18083;DHT22;9168;51.194;6.840;2024-02-26T09:28:42;7.30;99.90
18083;DHT22;9168;51.194;6.840;2024-02-26T09:31:10;7.30;99.90
18083;DHT22;9168;51.194;6.840;2024-02-26T09:33:37;7.20;99.90
18083;DHT22;9168;51.194;6.840;2024-02-26T09:36:05;7.30;99.90
18083;DHT22;9168;51.194;6.840;2024-02-26T09:38:32;7.30;99.90
18083;DHT22;9168;51.194;6.840;2024-02-26T09:41:02;7.30;99.90
18083;DHT22;9168;51.194;6.840;2024-02-26T09:43:34;7.30;99.90
18083;DHT22;9168;51.194;6.840;2024-02-26T09:46:02;7.30;99.90
18083;DHT22;9168;51.194;6.840;2024-02-26T09:48:32;7.30;99.90
18083;DHT22;9168;51.194;6.840;2024-02-26T09:51:00;7.30;99.90
18083;DHT22;9168;51.194;6.840;2024-02-26T09:53:29;7.30;99.90
18083;DHT22;9168;51.194;6.840;2024-02-26T09:55:57;7.40;99.90
18083;DHT22;9168;51.194;6.840;2024-02-26T09:58:25;7.40;99.90
18083;DHT22;9168;51.194;6.840;2024-02-26T10:00:56;7.40;99.90
18083;DHT22;9168;51.194;6.840;2024-02-26T10:03:28;7.40;99.90
18083;DHT22;9168;51.194;6.840;2024-02-26T10:05:56;7.40;99.90
18083;DHT22;9168;51.194;6.840;2024-02-26T10:08:24;7.40;99.90
18083;DHT22;9168;51.194;6.840;2024-02-26T10:10:51;7.40;99.90
18083;DHT22;9168;51.194;6.840;2024-02-26T10:13:19;7.50;99.90
18083;DHT22;9168;51.194;6.840;2024-02-26T10:15:46;7.50;99.90
18083;DHT22;9168;51.194;6.840;2024-02-26T10:18:13;7.50;99.90
18083;DHT22;9168;51.194;6.840;2024-02-26T10:20:40;7.50;99.90
18083;DHT22;9168;51.194;6.840;2024-02-26T10:23:08;7.50;99.90
18083;DHT22;9168;51.194;6.840;2024-02-26T10:25:35;7.50;99.90
18083;DHT22;9168;51.194;6.840;2024-02-26T10:28:02;7.50;99.90
18083;DHT22;9168;51.194;6.840;2024-02-26T10:30:29;7.50;99.90
18083;DHT22;9168;51.194;6.840;2024-02-26T10:32:57;7.50;99.90
18083;DHT22;9168;51.194;6.840;2024-02-26T10:35:24;7.60;99.90
18083;DHT22;9168;51.194;6.840;2024-02-26T10:37:51;7.70;99.90
18083;DHT22;9168;51.194;6.840;2024-02-26T10:40:21;7.70;99.90
18083;DHT22;9168;51.194;6.840;2024-02-26T10:42:48;7.70;99.90
18083;DHT22;9168;51.194;6.840;2024-02-26T10:45:14;7.70;99.90
18083;DHT22;9168;51.194;6.840;2024-02-26T10:47:41;7.70;99.90
18083;DHT22;9168;51.194;6.840;2024-02-26T10:50:09;7.70;99.90
18083;DHT22;9168;51.194;6.840;2024-02-26T10:52:36;7.80;99.90
18083;DHT22;9168;51.194;6.840;2024-02-26T10:55:05;7.80;99.90
18083;DHT22;9168;51.194;6.840;2024-02-26T10:57:36;7.80;99.90
18083;DHT22;9168;51.194;6.840;2024-02-26T11:00:06;7.80;99.90
18083;DHT22;9168;51.194;6.840;2024-02-26T11:02:50;7.80;99.90
18083;DHT22;9168;51.194;6.840;2024-02-26T11:05:39;7.80;99.90
18083;DHT22;9168;51.194;6.840;2024-02-26T11:08:06;7.80;99.90
18083;DHT22;9168;51.194;6.840;2024-02-26T11:10:34;7.90;99.90
18083;DHT22;9168;51.194;6.840;2024-02-26T11:13:04;7.90;99.90
18083;DHT22;9168;51.194;6.840;2024-02-26T11:15:32;8.00;99.90
18083;DHT22;9168;51.194;6.840;2024-02-26T11:18:00;8.00;99.90
18083;DHT22;9168;51.194;6.840;2024-02-26T11:20:28;8.10;99.90
18083;DHT22;9168;51.194;6.840;2024-02-26T11:22:56;8.10;99.90
18083;DHT22;9168;51.194;6.840;2024-02-26T11:25:23;8.10;99.90
18083;DHT22;9168;51.194;6.840;2024-02-26T11:27:52;8.10;99.90
18083;DHT22;9168;51.194;6.840;2024-02-26T11:30:22;8.20;99.90
18083;DHT22;9168;51.194;6.840;2024-02-26T11:32:50;8.20;99.90
18083;DHT22;9168;51.194;6.840;2024-02-26T11:35:19;8.20;99.90
18083;DHT22;9168;51.194;6.840;2024-02-26T11:37:54;8.20;99.90
18083;DHT22;9168;51.194;6.840;2024-02-26T11:40:23;8.20;99.90
18083;DHT22;9168;51.194;6.840;2024-02-26T11:42:50;8.20;99.90
18083;DHT22;9168;51.194;6.840;2024-02-26T11:48:29;8.20;99.90
18083;DHT22;9168;51.194;6.840;2024-02-26T11:50:56;8.20;99.90
18083;DHT22;9168;51.194;6.840;2024-02-26T11:53:25;8.20;99.90
18083;DHT22;9168;51.194;6.840;2024-02-26T11:56:20;8.10;99.90
18083;DHT22;9168;51.194;6.840;2024-02-26T11:58:48;8.10;99.90
18083;DHT22;9168;51.194;6.840;2024-02-26T12:04:22;8.10;99.90
18083;DHT22;9168;51.194;6.840;2024-02-26T12:06:52;8.10;99.90
18083;DHT22;9168;51.194;6.840;2024-02-26T12:09:32;8.10;99.90
18083;DHT22;9168;51.194;6.840;2024-02-26T12:12:00;8.10;99.90
18083;DHT22;9168;51.194;6.840;2024-02-26T12:14:27;8.10;99.90
18083;DHT22;9168;51.194;6.840;2024-02-26T12:16:55;8.10;99.90
18083;DHT22;9168;51.194;6.840;2024-02-26T12:19:25;8.10;99.90
18083;DHT22;9168;51.194;6.840;2024-02-26T12:21:52;8.10;99.90
18083;DHT22;9168;51.194;6.840;2024-02-26T12:24:20;8.10;99.90
18083;DHT22;9168;51.194;6.840;2024-02-26T12:26:47;8.10;99.90
18083;DHT22;9168;51.194;6.840;2024-02-26T12:29:14;8.10;99.90
18083;DHT22;9168;51.194;6.840;2024-02-26T12:31:41;8.10;99.90
18083;DHT22;9168;51.194;6.840;2024-02-26T12:34:09;8.10;99.90
18083;DHT22;9168;51.194;6.840;2024-02-26T12:36:37;8.10;99.90
18083;DHT22;9168;51.194;6.840;2024-02-26T12:39:06;8.10;99.90
18083;DHT22;9168;51.194;6.840;2024-02-26T12:41:35;8.10;99.90
18083;DHT22;9168;51.194;6.840;2024-02-26T12:44:02;8.10;99.90
18083;DHT22;9168;51.194;6.840;2024-02-26T12:46:30;8.10;99.90
18083;DHT22;9168;51.194;6.840;2024-02-26T12:48:59;8.10;99.90
18083;DHT22;9168;51.194;6.840;2024-02-26T12:51:27;8.10;99.90
18083;DHT22;9168;51.194;6.840;2024-02-26T12:53:56;8.00;99.90
18083;DHT22;9168;51.194;6.840;2024-02-26T12:56:23;8.00;99.90
18083;DHT22;9168;51.194;6.840;2024-02-26T12:58:52;8.00;99.90
18083;DHT22;9168;51.194;6.840;2024-02-26T13:01:22;8.00;99.90
18083;DHT22;9168;51.194;6.840;2024-02-26T13:03:50;8.00;99.90
18083;DHT22;9168;51.194;6.840;2024-02-26T13:06:18;8.00;99.90
18083;DHT22;9168;51.194;6.840;2024-02-26T13:08:45;8.00;99.90
18083;DHT22;9168;51.194;6.840;2024-02-26T13:11:14;8.00;99.90
18083;DHT22;9168;51.194;6.840;2024-02-26T13:13:41;8.00;99.90
18083;DHT22;9168;51.194;6.840;2024-02-26T13:16:14;8.00;99.90
18083;DHT22;9168;51.194;6.840;2024-02-26T13:18:42;8.00;99.90
18083;DHT22;9168;51.194;6.840;2024-02-26T13:21:11;8.10;99.90
18083;DHT22;9168;51.194;6.840;2024-02-26T13:23:38;8.10;99.90
18083;DHT22;9168;51.194;6.840;2024-02-26T13:26:06;8.00;99.90
18083;DHT22;9168;51.194;6.840;2024-02-26T13:28:34;8.00;99.90
18083;DHT22;9168;51.194;6.840;2024-02-26T13:31:02;8.10;99.90
18083;DHT22;9168;51.194;6.840;2024-02-26T13:33:31;8.00;99.90
18083;DHT22;9168;51.194;6.840;2024-02-26T13:35:59;8.10;99.90
18083;DHT22;9168;51.194;6.840;2024-02-26T13:38:27;8.10;99.90
18083;DHT22;9168;51.194;6.840;2024-02-26T13:40:54;8.10;99.90
18083;DHT22;9168;51.194;6.840;2024-02-26T13:43:21;8.10;99.90
18083;DHT22;9168;51.194;6.840;2024-02-26T13:45:49;8.10;99.90
18083;DHT22;9168;51.194;6.840;2024-02-26T13:48:16;8.20;99.90
18083;DHT22;9168;51.194;6.840;2024-02-26T13:50:44;8.10;99.90
18083;DHT22;9168;51.194;6.840;2024-02-26T13:53:12;8.10;99.90
18083;DHT22;9168;51.194;6.840;2024-02-26T13:55:40;8.20;99.90
18083;DHT22;9168;51.194;6.840;2024-02-26T13:58:08;8.20;99.90
18083;DHT22;9168;51.194;6.840;2024-02-26T14:00:37;8.20;99.90
18083;DHT22;9168;51.194;6.840;2024-02-26T14:03:06;8.20;99.90
18083;DHT22;9168;51.194;6.840;2024-02-26T14:05:33;8.20;99.90
18083;DHT22;9168;51.194;6.840;2024-02-26T14:07:59;8.20;99.90
18083;DHT22;9168;51.194;6.840;2024-02-26T14:10:26;8.20;99.90
18083;DHT22;9168;51.194;6.840;2024-02-26T14:12:53;8.20;99.90
18083;DHT22;9168;51.194;6.840;2024-02-26T14:15:20;8.20;99.90
18083;DHT22;9168;51.194;6.840;2024-02-26T14:17:47;8.30;99.90
18083;DHT22;9168;51.194;6.840;2024-02-26T14:20:20;8.30;99.90
18083;DHT22;9168;51.194;6.840;2024-02-26T14:22:47;8.40;99.90
18083;DHT22;9168;51.194;6.840;2024-02-26T14:25:14;8.40;99.90
18083;DHT22;9168;51.194;6.840;2024-02-26T14:27:41;8.40;99.90
18083;DHT22;9168;51.194;6.840;2024-02-26T14:30:09;8.40;99.90
18083;DHT22;9168;51.194;6.840;2024-02-26T14:32:36;8.40;99.90
18083;DHT22;9168;51.194;6.840;2024-02-26T14:35:05;8.40;99.90
18083;DHT22;9168;51.194;6.840;2024-02-26T14:37:33;8.40;99.90
18083;DHT22;9168;51.194;6.840;2024-02-26T14:40:00;8.40;99.90
18083;DHT22;9168;51.194;6.840;2024-02-26T14:42:28;8.40;99.90
18083;DHT22;9168;51.194;6.840;2024-02-26T14:44:55;8.40;99.90
18083;DHT22;9168;51.194;6.840;2024-02-26T14:47:22;8.40;99.90
18083;DHT22;9168;51.194;6.840;2024-02-26T14:49:49;8.40;99.90
18083;DHT22;9168;51.194;6.840;2024-02-26T14:52:17;8.40;99.90
18083;DHT22;9168;51.194;6.840;2024-02-26T14:54:45;8.40;99.90
18083;DHT22;9168;51.194;6.840;2024-02-26T14:57:12;8.40;99.90
18083;DHT22;9168;51.194;6.840;2024-02-26T14:59:39;8.40;99.90
18083;DHT22;9168;51.194;6.840;2024-02-26T15:02:07;8.40;99.90
18083;DHT22;9168;51.194;6.840;2024-02-26T15:04:36;8.40;99.90
18083;DHT22;9168;51.194;6.840;2024-02-26T15:07:03;8.40;99.90
18083;DHT22;9168;51.194;6.840;2024-02-26T15:09:30;8.40;99.90
18083;DHT22;9168;51.194;6.840;2024-02-26T15:12:00;8.40;99.90
18083;DHT22;9168;51.194;6.840;2024-02-26T15:14:28;8.30;99.90
18083;DHT22;9168;51.194;6.840;2024-02-26T15:16:56;8.30;99.90
18083;DHT22;9168;51.194;6.840;2024-02-26T15:19:23;8.30;99.90
18083;DHT22;9168;51.194;6.840;2024-02-26T15:21:50;8.30;99.90
18083;DHT22;9168;51.194;6.840;2024-02-26T15:24:17;8.30;99.90
18083;DHT22;9168;51.194;6.840;2024-02-26T15:26:44;8.30;99.90
18083;DHT22;9168;51.194;6.840;2024-02-26T15:29:12;8.30;99.90
18083;DHT22;9168;51.194;6.840;2024-02-26T15:31:39;8.30;99.90
18083;DHT22;9168;51.194;6.840;2024-02-26T15:34:06;8.30;99.90
18083;DHT22;9168;51.194;6.840;2024-02-26T15:36:34;8.30;99.90
18083;DHT22;9168;51.194;6.840;2024-02-26T15:39:02;8.30;99.90
18083;DHT22;9168;51.194;6.840;2024-02-26T15:41:30;8.20;99.90
18083;DHT22;9168;51.194;6.840;2024-02-26T15:43:57;8.20;99.90
18083;DHT22;9168;51.194;6.840;2024-02-26T15:46:27;8.20;99.90
18083;DHT22;9168;51.194;6.840;2024-02-26T15:48:54;8.20;99.90
18083;DHT22;9168;51.194;6.840;2024-02-26T15:51:21;8.20;99.90
18083;DHT22;9168;51.194;6.840;2024-02-26T15:53:49;8.20;99.90
18083;DHT22;9168;51.194;6.840;2024-02-26T15:56:17;8.20;99.90
18083;DHT22;9168;51.194;6.840;2024-02-26T15:58:44;8.20;99.90
18083;DHT22;9168;51.194;6.840;2024-02-26T16:01:11;8.10;99.90
18083;DHT22;9168;51.194;6.840;2024-02-26T16:03:39;8.10;99.90
18083;DHT22;9168;51.194;6.840;2024-02-26T16:06:11;8.20;99.90
18083;DHT22;9168;51.194;6.840;2024-02-26T16:08:40;8.10;99.90
18083;DHT22;9168;51.194;6.840;2024-02-26T16:11:07;8.10;99.90